Time;durP1;ratioP1;P1;durP2;ratioP2;P2;SDS_P1;SDS_P2;PMS_P1;PMS_P2;Temp;Humidity;BMP_temperature;BMP_pressure;BME280_temperature;BME280_humidity;BME280_pressure;Samples;Min_cycle;Max_cycle;Signal;HPM_P1;HPM_P2
2022/05/18 00:02:14;;;;;;;8.05;4.10;;;18.50;99.90;;;;;;5017404;28;20037;-76
2022/05/18 00:04:39;;;;;;;8.70;3.88;;;18.30;99.90;;;;;;5034830;28;20125;-76
2022/05/18 00:07:05;;;;;;;7.35;4.20;;;18.90;99.90;;;;;;5034736;28;20542;-76
2022/05/18 00:09:30;;;;;;;10.90;5.10;;;18.40;99.90;;;;;;5035185;28;20105;-76
2022/05/18 00:11:56;;;;;;;7.47;4.15;;;18.30;99.90;;;;;;5035719;28;20049;-76
2022/05/18 00:14:21;;;;;;;6.28;4.07;;;18.20;99.90;;;;;;5035690;28;20049;-77
2022/05/18 00:16:47;;;;;;;6.70;4.40;;;18.30;99.90;;;;;;5034299;28;20102;-76
2022/05/18 00:19:12;;;;;;;9.48;5.00;;;18.30;99.90;;;;;;5033498;28;20034;-76
2022/05/18 00:21:38;;;;;;;9.00;4.57;;;18.20;99.90;;;;;;5035673;28;20658;-77
2022/05/18 00:24:04;;;;;;;10.00;4.90;;;18.20;99.90;;;;;;5035763;28;20121;-76
2022/05/18 00:26:30;;;;;;;6.07;4.15;;;18.10;99.90;;;;;;5035625;28;20087;-76
2022/05/18 00:28:56;;;;;;;9.18;4.93;;;18.00;99.90;;;;;;5033686;28;20124;-76
2022/05/18 00:31:21;;;;;;;9.15;5.60;;;18.10;99.90;;;;;;5033999;28;20068;-76
2022/05/18 00:33:48;;;;;;;7.88;4.40;;;18.00;99.90;;;;;;5033957;28;20630;-76
2022/05/18 00:36:13;;;;;;;10.15;5.10;;;18.00;99.90;;;;;;5034312;28;20090;-76
2022/05/18 00:38:39;;;;;;;6.90;4.68;;;18.00;99.90;;;;;;5034161;28;20128;-77
2022/05/18 00:41:05;;;;;;;7.78;4.60;;;18.10;99.90;;;;;;5034692;28;20064;-77
2022/05/18 00:43:30;;;;;;;5.72;4.65;;;17.90;99.90;;;;;;5033868;28;20044;-77
2022/05/18 00:46:01;;;;;;;8.65;4.93;;;17.70;99.90;;;;;;5035274;28;20049;-76
2022/05/18 00:48:27;;;;;;;7.10;4.72;;;17.70;99.90;;;;;;5033947;28;20038;-77
2022/05/18 00:50:55;;;;;;;11.63;5.20;;;17.80;99.90;;;;;;5034412;28;20172;-77
2022/05/18 00:53:26;;;;;;;7.90;4.95;;;17.70;99.90;;;;;;5033898;28;20087;-77
2022/05/18 00:55:56;;;;;;;7.32;5.40;;;17.80;99.90;;;;;;5034882;28;20511;-77
2022/05/18 00:58:38;;;;;;;8.05;5.13;;;17.70;99.90;;;;;;5033823;28;20042;-76
2022/05/18 01:01:03;;;;;;;10.73;4.65;;;17.70;99.90;;;;;;5032806;28;20095;-77
2022/05/18 01:03:35;;;;;;;12.18;5.22;;;17.80;99.90;;;;;;5033586;28;20491;-77
2022/05/18 01:06:10;;;;;;;10.65;5.47;;;17.70;99.90;;;;;;5032520;28;20088;-76
2022/05/18 01:08:52;;;;;;;6.93;5.18;;;17.80;99.90;;;;;;5034469;28;20431;-76
2022/05/18 01:11:18;;;;;;;9.30;5.65;;;17.70;99.90;;;;;;5034011;28;20529;-76
2022/05/18 01:13:46;;;;;;;8.15;4.63;;;;;;;;;;5034397;28;20084;-76
2022/05/18 01:16:12;;;;;;;7.05;4.60;;;17.80;99.90;;;;;;5033524;28;20535;-77
2022/05/18 01:18:39;;;;;;;13.20;6.50;;;17.70;99.90;;;;;;5016671;28;20038;-76
2022/05/18 01:21:06;;;;;;;8.60;6.10;;;;;;;;;;5015874;28;20029;-76
2022/05/18 01:23:38;;;;;;;8.95;6.13;;;;;;;;;;5034157;28;20526;-76
2022/05/18 01:26:06;;;;;;;10.75;5.13;;;;;;;;;;5034533;28;20045;-77
2022/05/18 01:28:51;;;;;;;6.93;5.15;;;;;;;;;;5034303;28;20081;-76
2022/05/18 01:31:17;;;;;;;10.95;5.40;;;17.30;99.90;;;;;;5016160;28;20048;-77
2022/05/18 01:33:42;;;;;;;10.85;5.93;;;17.60;99.90;;;;;;5032629;28;20045;-77
2022/05/18 01:36:08;;;;;;;9.20;5.38;;;17.40;99.90;;;;;;5032851;28;20037;-77
2022/05/18 01:38:34;;;;;;;9.57;6.20;;;17.20;99.90;;;;;;5032762;28;20037;-76
2022/05/18 01:41:16;;;;;;;9.70;5.72;;;17.20;99.90;;;;;;5032115;28;20092;-76
2022/05/18 01:43:50;;;;;;;11.45;7.13;;;17.20;99.90;;;;;;5032655;28;20046;-76
2022/05/18 01:46:19;;;;;;;11.52;6.05;;;17.10;99.90;;;;;;5016196;28;20052;-76
2022/05/18 01:48:48;;;;;;;10.80;5.43;;;17.10;99.90;;;;;;5032587;28;20034;-76
2022/05/18 01:51:18;;;;;;;8.90;5.82;;;;;;;;;;5031647;28;20072;-76
2022/05/18 01:53:44;;;;;;;8.63;6.03;;;17.10;99.90;;;;;;5032557;28;20456;-76
2022/05/18 01:56:09;;;;;;;10.30;6.47;;;17.00;99.90;;;;;;5015950;28;20037;-76
2022/05/18 01:58:35;;;;;;;11.15;6.10;;;;;;;;;;5033587;28;20040;-76
2022/05/18 02:01:03;;;;;;;9.13;6.20;;;;;;;;;;5031892;28;20095;-76
2022/05/18 02:03:29;;;;;;;12.75;6.78;;;17.00;99.90;;;;;;5032471;28;20041;-76
2022/05/18 02:05:55;;;;;;;9.40;5.47;;;;;;;;;;5031201;28;20052;-76
2022/05/18 02:08:22;;;;;;;9.15;6.10;;;;;;;;;;5033453;28;20111;-76
2022/05/18 02:10:48;;;;;;;11.60;6.00;;;;;;;;;;5031305;28;20095;-76
2022/05/18 02:13:16;;;;;;;10.20;6.20;;;17.00;99.90;;;;;;5032307;28;20049;-77
2022/05/18 02:15:42;;;;;;;8.88;5.80;;;;;;;;;;5032147;28;20084;-76
2022/05/18 02:18:08;;;;;;;15.13;8.38;;;;;;;;;;5033380;28;20034;-76
2022/05/18 02:20:34;;;;;;;11.00;6.57;;;16.80;99.90;;;;;;5031425;28;20128;-76
2022/05/18 02:23:01;;;;;;;10.95;6.25;;;16.60;99.90;;;;;;5032600;28;20112;-76
2022/05/18 02:25:27;;;;;;;10.57;7.00;;;16.70;99.90;;;;;;5014944;28;20080;-76
2022/05/18 02:27:54;;;;;;;11.57;6.97;;;16.70;99.90;;;;;;5033264;28;20448;-76
2022/05/18 02:30:20;;;;;;;9.98;7.15;;;16.50;99.90;;;;;;5031019;28;20037;-76
2022/05/18 02:32:45;;;;;;;8.82;6.00;;;16.70;99.90;;;;;;5031638;28;20091;-76
2022/05/18 02:35:11;;;;;;;11.13;6.43;;;16.80;99.90;;;;;;5015147;28;20045;-76
2022/05/18 02:37:37;;;;;;;11.80;7.28;;;16.60;99.90;;;;;;5031870;28;20037;-76
2022/05/18 02:40:04;;;;;;;9.73;6.60;;;16.60;99.90;;;;;;5030662;28;20034;-76
2022/05/18 02:42:29;;;;;;;9.23;6.10;;;16.60;99.90;;;;;;5031576;28;20041;-76
2022/05/18 02:44:55;;;;;;;8.05;5.68;;;16.60;99.90;;;;;;5032900;28;20098;-76
2022/05/18 02:47:21;;;;;;;12.13;7.50;;;16.50;99.90;;;;;;5031663;28;20092;-76
2022/05/18 02:49:47;;;;;;;12.40;7.22;;;16.50;99.90;;;;;;5030893;28;20048;-76
2022/05/18 02:52:12;;;;;;;8.05;6.00;;;16.40;99.90;;;;;;5031643;28;20660;-76
2022/05/18 02:57:22;;;;;;;9.93;6.35;;;16.30;99.90;;;;;;5033425;28;20092;-75
2022/05/18 02:59:49;;;;;;;8.98;6.90;;;16.50;99.90;;;;;;5042707;28;20030;-75
2022/05/18 03:02:14;;;;;;;9.75;6.32;;;16.30;99.90;;;;;;5036103;28;20041;-75
2022/05/18 03:04:40;;;;;;;9.35;6.80;;;16.40;99.90;;;;;;5030601;28;20095;-75
2022/05/18 03:07:06;;;;;;;12.80;7.13;;;16.40;99.90;;;;;;5031404;28;20095;-75
2022/05/18 03:09:32;;;;;;;10.95;7.35;;;16.30;99.90;;;;;;5030528;28;20081;-75
2022/05/18 03:12:01;;;;;;;12.80;6.90;;;;;;;;;;5032322;28;20048;-75
2022/05/18 03:14:29;;;;;;;10.73;7.25;;;;;;;;;;5032164;28;20053;-75
2022/05/18 03:16:56;;;;;;;9.55;7.05;;;;;;;;;;5014716;28;20042;-75
2022/05/18 03:19:23;;;;;;;9.10;7.18;;;;;;;;;;5030684;28;20446;-75
2022/05/18 03:24:34;;;;;;;9.18;6.82;;;16.30;99.90;;;;;;5030963;28;20084;-76
2022/05/18 03:27:00;;;;;;;13.43;7.20;;;16.10;99.90;;;;;;5032275;28;20073;-76
2022/05/18 03:29:25;;;;;;;10.60;6.97;;;16.20;99.90;;;;;;5030066;28;20048;-75
2022/05/18 03:31:51;;;;;;;13.10;6.13;;;16.20;99.90;;;;;;5030991;28;20044;-76
2022/05/18 03:34:17;;;;;;;12.07;6.95;;;16.00;99.90;;;;;;5030563;28;20037;-76
2022/05/18 03:36:43;;;;;;;13.60;7.85;;;;;;;;;;5030683;28;20091;-76
2022/05/18 03:39:09;;;;;;;13.23;7.63;;;16.10;99.90;;;;;;5030012;28;20033;-75
2022/05/18 03:41:35;;;;;;;10.35;6.85;;;15.90;99.90;;;;;;5031715;28;20029;-75
2022/05/18 03:44:05;;;;;;;9.40;7.15;;;16.00;99.90;;;;;;5031772;28;20541;-76
2022/05/18 03:46:31;;;;;;;9.25;7.35;;;16.00;99.90;;;;;;5030476;28;20073;-76
2022/05/18 03:48:56;;;;;;;10.13;7.32;;;16.10;99.90;;;;;;5030401;28;20100;-76
2022/05/18 03:51:22;;;;;;;8.18;6.47;;;16.00;99.90;;;;;;5030306;28;20040;-76
2022/05/18 03:53:47;;;;;;;13.63;7.07;;;15.90;99.90;;;;;;5030550;28;20115;-76
2022/05/18 03:56:13;;;;;;;10.98;6.63;;;15.90;99.90;;;;;;5030388;28;20511;-76
2022/05/18 03:58:40;;;;;;;10.60;7.35;;;16.10;99.90;;;;;;5031627;28;20488;-76
2022/05/18 04:01:10;;;;;;;13.63;7.70;;;16.00;99.90;;;;;;5029676;28;20048;-76
2022/05/18 04:03:41;;;;;;;8.13;6.45;;;16.10;99.90;;;;;;5030290;28;20132;-76
2022/05/18 04:06:07;;;;;;;10.52;6.90;;;16.10;99.90;;;;;;5029951;28;20445;-76
2022/05/18 04:08:33;;;;;;;12.02;7.20;;;16.10;99.90;;;;;;5031476;28;20045;-76
2022/05/18 04:10:59;;;;;;;10.75;6.65;;;16.20;99.90;;;;;;5013087;28;20037;-76
2022/05/18 04:13:25;;;;;;;8.20;7.05;;;16.30;99.90;;;;;;5030475;28;20094;-76
2022/05/18 04:15:51;;;;;;;10.80;7.00;;;16.10;99.90;;;;;;5030165;28;20076;-76
2022/05/18 04:18:17;;;;;;;11.38;7.50;;;16.30;99.90;;;;;;5031611;28;20495;-76
2022/05/18 04:20:43;;;;;;;12.05;8.00;;;16.20;99.90;;;;;;5030692;28;20049;-76
2022/05/18 04:23:10;;;;;;;14.38;7.55;;;16.20;99.90;;;;;;5030283;28;20053;-76
2022/05/18 04:25:36;;;;;;;14.60;7.95;;;16.20;99.90;;;;;;5030136;28;20048;-76
2022/05/18 04:28:03;;;;;;;8.40;6.18;;;16.30;99.90;;;;;;5030225;28;20071;-76
2022/05/18 04:30:29;;;;;;;7.93;6.35;;;16.40;99.90;;;;;;5029370;28;20057;-76
2022/05/18 04:32:55;;;;;;;10.57;7.70;;;16.40;99.90;;;;;;5030080;28;20491;-76
2022/05/18 04:35:25;;;;;;;11.85;7.03;;;16.40;99.90;;;;;;5013594;28;20076;-75
2022/05/18 04:37:51;;;;;;;10.43;7.88;;;16.40;99.90;;;;;;5029995;28;20084;-76
2022/05/18 04:40:17;;;;;;;10.50;7.30;;;16.40;99.90;;;;;;5029597;28;20113;-75
2022/05/18 04:42:42;;;;;;;13.32;7.68;;;16.60;99.90;;;;;;5013751;28;20120;-76
2022/05/18 04:45:11;;;;;;;11.93;7.68;;;16.70;99.90;;;;;;5030331;28;20573;-76
2022/05/18 04:47:37;;;;;;;10.93;8.00;;;16.80;99.90;;;;;;5033317;28;20084;-76
2022/05/18 04:50:03;;;;;;;10.88;7.10;;;16.60;99.90;;;;;;5034215;28;20080;-76
2022/05/18 04:52:29;;;;;;;11.40;7.60;;;16.70;99.90;;;;;;5033381;28;20052;-76
2022/05/18 04:54:55;;;;;;;8.27;6.38;;;16.70;99.90;;;;;;5020592;28;20046;-76
2022/05/18 04:57:22;;;;;;;11.25;7.50;;;16.70;99.90;;;;;;5021392;28;20066;-74
2022/05/18 04:59:48;;;;;;;11.52;8.18;;;16.80;99.90;;;;;;5027058;28;20034;-75
2022/05/18 05:02:14;;;;;;;11.32;7.53;;;16.70;99.90;;;;;;5014904;28;20038;-76
2022/05/18 05:04:39;;;;;;;11.93;7.57;;;16.80;99.90;;;;;;5018114;28;20053;-74
2022/05/18 05:07:05;;;;;;;12.85;8.35;;;16.70;99.90;;;;;;5024650;28;20037;-75
2022/05/18 05:09:31;;;;;;;16.73;9.95;;;16.60;99.90;;;;;;5028650;28;20041;-73
2022/05/18 05:11:56;;;;;;;11.27;7.85;;;16.70;99.90;;;;;;5014814;28;20041;-76
2022/05/18 05:14:23;;;;;;;16.42;8.45;;;16.80;99.90;;;;;;5014736;28;20050;-76
2022/05/18 05:16:48;;;;;;;11.55;8.30;;;17.00;99.90;;;;;;5013575;28;20033;-76
2022/05/18 05:19:14;;;;;;;13.23;8.07;;;16.90;99.90;;;;;;5015128;28;20102;-74
2022/05/18 05:21:42;;;;;;;11.43;8.77;;;16.90;99.90;;;;;;5023540;28;20034;-75
2022/05/18 05:24:17;;;;;;;10.32;8.65;;;17.00;99.90;;;;;;5013322;28;20049;-76
2022/05/18 05:26:43;;;;;;;10.25;7.95;;;17.10;99.90;;;;;;5019721;28;20048;-75
2022/05/18 05:29:10;;;;;;;11.95;8.50;;;17.10;99.90;;;;;;5009245;28;20057;-75
2022/05/18 05:31:37;;;;;;;13.18;8.95;;;17.20;99.90;;;;;;5021479;28;20037;-75
2022/05/18 05:34:03;;;;;;;13.15;8.77;;;17.40;99.90;;;;;;5022342;28;20041;-76
2022/05/18 05:36:29;;;;;;;12.05;8.75;;;17.40;99.90;;;;;;5013015;28;20065;-76
2022/05/18 05:38:56;;;;;;;14.77;8.95;;;17.50;99.90;;;;;;4995269;28;20042;-76
2022/05/18 05:41:22;;;;;;;12.57;10.15;;;17.50;99.90;;;;;;5016081;28;20112;-75
2022/05/18 05:43:48;;;;;;;13.68;9.77;;;17.80;99.90;;;;;;5018227;28;20038;-75
2022/05/18 05:46:13;;;;;;;11.43;7.53;;;17.60;99.90;;;;;;5016370;28;20091;-76
2022/05/18 05:48:41;;;;;;;12.27;9.13;;;;;;;;;;5029645;28;20041;-75
2022/05/18 05:51:12;;;;;;;11.07;8.90;;;17.70;99.90;;;;;;5033057;28;20045;-76
2022/05/18 05:53:42;;;;;;;14.65;10.55;;;17.70;99.90;;;;;;5032405;28;20057;-76
2022/05/18 05:56:08;;;;;;;14.95;9.82;;;17.80;99.90;;;;;;5015893;28;20046;-76
2022/05/18 05:58:36;;;;;;;14.18;9.02;;;17.90;99.90;;;;;;5033697;28;20043;-76
2022/05/18 06:01:03;;;;;;;14.32;10.55;;;18.10;99.90;;;;;;5031665;28;20129;-76
2022/05/18 06:03:29;;;;;;;13.40;9.32;;;18.00;99.90;;;;;;5033539;28;20076;-76
2022/05/18 06:05:56;;;;;;;15.43;10.70;;;18.20;99.90;;;;;;5033521;28;20076;-76
2022/05/18 06:08:23;;;;;;;14.68;10.75;;;18.20;99.90;;;;;;5032222;28;20049;-76
2022/05/18 06:10:48;;;;;;;16.70;10.40;;;18.40;99.90;;;;;;5031709;28;20128;-75
2022/05/18 06:13:14;;;;;;;13.25;10.32;;;18.40;99.90;;;;;;5032049;28;20075;-76
2022/05/18 06:15:40;;;;;;;15.40;10.38;;;18.50;99.90;;;;;;5040588;28;20041;-76
2022/05/18 06:18:06;;;;;;;15.68;10.60;;;18.70;99.90;;;;;;5010874;28;20033;-76
2022/05/18 06:20:32;;;;;;;13.68;9.98;;;18.90;99.90;;;;;;5010800;28;20124;-76
2022/05/18 06:23:07;;;;;;;22.15;11.23;;;19.00;99.90;;;;;;5011554;28;20120;-76
2022/05/18 06:25:33;;;;;;;24.38;12.43;;;19.20;99.90;;;;;;5028006;28;20041;-75
2022/05/18 06:27:59;;;;;;;12.07;9.40;;;19.20;99.90;;;;;;5028074;28;20045;-76
2022/05/18 06:30:25;;;;;;;17.92;11.55;;;19.30;99.90;;;;;;5026927;28;20204;-76
2022/05/18 06:32:50;;;;;;;15.43;10.50;;;19.50;99.90;;;;;;5029963;28;20038;-76
2022/05/18 06:35:16;;;;;;;15.05;9.15;;;19.60;99.90;;;;;;5030652;28;20416;-76
2022/05/18 06:37:41;;;;;;;18.33;11.98;;;19.70;99.90;;;;;;5031191;28;20065;-75
2022/05/18 06:40:08;;;;;;;15.30;11.35;;;19.80;99.90;;;;;;5031365;28;20042;-75
2022/05/18 06:42:34;;;;;;;21.05;12.25;;;19.90;99.90;;;;;;5032834;28;20049;-76
2022/05/18 06:45:03;;;;;;;17.65;11.88;;;19.90;99.90;;;;;;5031494;28;20389;-76
2022/05/18 06:47:29;;;;;;;20.05;12.45;;;20.10;99.90;;;;;;5031481;28;20096;-76
2022/05/18 06:49:55;;;;;;;16.25;12.05;;;20.20;99.90;;;;;;5030595;28;20061;-76
2022/05/18 06:52:21;;;;;;;15.52;10.23;;;20.50;99.90;;;;;;5032632;28;20163;-76
2022/05/18 06:54:47;;;;;;;16.52;10.63;;;20.30;99.90;;;;;;5006433;28;20049;-75
2022/05/18 06:57:13;;;;;;;15.60;10.65;;;20.30;99.90;;;;;;5022869;28;20034;-75
2022/05/18 06:59:38;;;;;;;19.63;10.95;;;20.60;99.90;;;;;;5029287;28;20041;-75
2022/05/18 07:02:04;;;;;;;14.52;11.23;;;20.60;99.90;;;;;;5031264;28;20041;-74
2022/05/18 07:04:30;;;;;;;12.90;9.48;;;20.50;99.90;;;;;;5031114;28;20041;-74
2022/05/18 07:06:55;;;;;;;14.98;9.80;;;20.50;99.90;;;;;;5031115;28;20037;-76
2022/05/18 07:09:23;;;;;;;14.55;9.13;;;20.90;99.90;;;;;;5030240;28;20038;-75
2022/05/18 07:11:50;;;;;;;12.48;8.35;;;21.10;99.90;;;;;;5030896;28;20637;-76
2022/05/18 07:14:19;;;;;;;10.90;8.07;;;21.20;99.90;;;;;;5032173;28;20112;-76
2022/05/18 07:16:45;;;;;;;10.88;8.50;;;21.30;99.90;;;;;;5032579;28;20083;-76
2022/05/18 07:19:11;;;;;;;13.65;7.57;;;21.40;99.90;;;;;;5031344;28;20518;-75
2022/05/18 07:21:37;;;;;;;13.75;7.65;;;21.40;99.90;;;;;;5014394;28;20060;-73
2022/05/18 07:24:03;;;;;;;12.98;7.57;;;21.40;99.90;;;;;;5030846;28;20495;-74
2022/05/18 07:26:28;;;;;;;14.57;8.13;;;21.50;99.90;;;;;;5030784;28;20037;-74
2022/05/18 07:28:56;;;;;;;10.95;7.68;;;21.60;99.90;;;;;;5030421;28;20038;-74
2022/05/18 07:31:22;;;;;;;15.38;8.55;;;21.80;99.90;;;;;;5031681;28;20519;-74
2022/05/18 07:33:49;;;;;;;11.25;8.38;;;21.80;99.90;;;;;;5030583;28;20044;-73
2022/05/18 07:36:16;;;;;;;11.23;8.32;;;21.90;99.90;;;;;;5031869;28;20041;-73
2022/05/18 07:38:42;;;;;;;10.43;8.23;;;21.80;99.90;;;;;;5031808;28;20094;-73
2022/05/18 07:41:10;;;;;;;11.23;8.30;;;21.90;99.90;;;;;;5031170;28;20120;-74
2022/05/18 07:43:37;;;;;;;10.07;7.82;;;22.00;99.90;;;;;;5021967;28;20511;-73
2022/05/18 07:46:03;;;;;;;13.40;9.10;;;22.10;99.90;;;;;;5021453;28;20125;-73
2022/05/18 07:48:29;;;;;;;11.10;8.93;;;22.10;99.90;;;;;;5025755;28;20041;-73
2022/05/18 07:50:56;;;;;;;13.30;8.32;;;22.00;99.90;;;;;;5026048;28;20515;-74
2022/05/18 07:53:21;;;;;;;13.88;10.25;;;22.10;99.90;;;;;;5031905;28;20402;-74
2022/05/18 07:55:47;;;;;;;15.02;9.98;;;21.90;99.90;;;;;;5031795;28;20120;-74
2022/05/18 07:58:15;;;;;;;12.32;9.02;;;22.20;99.90;;;;;;5031829;28;20047;-74
2022/05/18 08:00:41;;;;;;;11.88;8.88;;;22.40;99.90;;;;;;5031007;28;20037;-74
2022/05/18 08:03:09;;;;;;;13.10;9.35;;;22.50;99.90;;;;;;5030153;28;20125;-74
2022/05/18 08:05:35;;;;;;;16.23;9.85;;;22.50;99.90;;;;;;5030215;28;20045;-74
2022/05/18 08:08:09;;;;;;;14.57;9.07;;;22.50;99.90;;;;;;5031740;28;20120;-74
2022/05/18 08:16:04;;;;;;;14.52;8.82;;;22.90;99.90;;;;;;5030057;28;20478;-74
2022/05/18 08:18:30;;;;;;;14.40;9.88;;;22.90;99.90;;;;;;5030479;28;20405;-74
2022/05/18 08:20:55;;;;;;;17.42;10.50;;;22.80;99.90;;;;;;5026891;28;20038;-74
2022/05/18 08:23:21;;;;;;;14.50;10.38;;;22.90;99.90;;;;;;5024562;28;20044;-74
2022/05/18 08:25:47;;;;;;;16.35;10.02;;;23.20;99.90;;;;;;5034233;28;20394;-74
2022/05/18 08:28:14;;;;;;;16.98;9.90;;;23.10;99.90;;;;;;5035488;28;20120;-74
2022/05/18 08:30:42;;;;;;;19.08;11.20;;;23.30;99.90;;;;;;5010815;28;20491;-74
2022/05/18 08:33:08;;;;;;;14.68;9.85;;;23.20;99.90;;;;;;5034216;28;20406;-74
2022/05/18 08:35:33;;;;;;;12.00;9.95;;;23.30;99.90;;;;;;5033989;28;20045;-74
2022/05/18 08:37:59;;;;;;;16.00;11.55;;;24.60;99.90;;;;;;5035418;28;20120;-74
2022/05/18 08:40:48;;;;;;;14.18;10.35;;;23.60;99.90;;;;;;5033369;28;20384;-74
2022/05/18 08:43:30;;;;;;;19.67;12.07;;;23.50;99.90;;;;;;5033968;28;20037;-74
2022/05/18 08:46:01;;;;;;;20.45;13.45;;;23.60;99.90;;;;;;5035758;28;20551;-74
2022/05/18 08:48:42;;;;;;;14.80;12.02;;;23.40;99.90;;;;;;5033936;28;20045;-74
2022/05/18 08:51:29;;;;;;;19.30;12.65;;;23.60;99.90;;;;;;5034885;28;20044;-74
2022/05/18 08:54:20;;;;;;;16.30;12.02;;;23.90;99.90;;;;;;5033887;28;20045;-74
2022/05/18 08:56:46;;;;;;;25.63;13.18;;;24.00;99.90;;;;;;5016908;28;20042;-74
2022/05/18 08:59:18;;;;;;;18.65;13.25;;;23.70;99.90;;;;;;5033994;28;20142;-74
2022/05/18 09:01:47;;;;;;;17.20;10.98;;;23.80;99.90;;;;;;5033458;28;20029;-74
2022/05/18 09:04:22;;;;;;;16.92;11.73;;;24.00;99.90;;;;;;5005229;28;20026;-74
2022/05/18 09:06:52;;;;;;;20.23;12.32;;;26.00;99.90;;;;;;5021657;28;20480;-74
2022/05/18 09:12:18;;;;;;;17.50;11.85;;;24.10;99.90;;;;;;5013906;28;20100;-73
2022/05/18 09:14:45;;;;;;;19.50;13.45;;;24.00;99.90;;;;;;5013768;28;20050;-75
2022/05/18 09:17:30;;;;;;;21.25;12.30;;;24.10;99.90;;;;;;5013553;28;20048;-75
2022/05/18 09:20:13;;;;;;;22.15;12.85;;;24.30;99.90;;;;;;5014039;28;20419;-75
2022/05/18 09:23:00;;;;;;;21.02;13.35;;;24.40;99.90;;;;;;5013535;28;20041;-75
2022/05/18 09:25:40;;;;;;;18.58;12.63;;;24.30;99.90;;;;;;5014687;28;20579;-75
2022/05/18 09:28:40;;;;;;;17.27;11.15;;;24.40;99.90;;;;;;5014683;28;20475;-75
2022/05/18 09:31:21;;;;;;;16.85;11.70;;;24.80;99.90;;;;;;4990246;28;20045;-75
2022/05/18 09:33:55;;;;;;;15.80;10.02;;;24.60;99.90;;;;;;5014115;28;20496;-75
2022/05/18 09:36:46;;;;;;;17.77;10.55;;;24.60;99.90;;;;;;5014514;28;20088;-75
2022/05/18 09:39:17;;;;;;;13.30;10.05;;;24.70;99.90;;;;;;5012487;28;20046;-75
2022/05/18 09:42:03;;;;;;;19.13;11.23;;;24.60;99.90;;;;;;5014431;28;20112;-75
2022/05/18 09:44:42;;;;;;;16.85;10.70;;;24.90;99.90;;;;;;4997121;28;20052;-74
2022/05/18 09:47:14;;;;;;;15.25;10.57;;;24.60;99.90;;;;;;5013337;28;20046;-75
2022/05/18 09:49:44;;;;;;;16.80;11.65;;;24.30;99.90;;;;;;5012240;28;20038;-75
2022/05/18 09:52:12;;;;;;;19.98;13.07;;;25.60;99.90;;;;;;5013112;28;20184;-75
2022/05/18 09:54:38;;;;;;;17.70;12.13;;;24.70;99.90;;;;;;5012679;28;20046;-75
2022/05/18 09:57:13;;;;;;;17.00;11.07;;;24.80;99.90;;;;;;5012747;28;20042;-75
2022/05/18 09:59:55;;;;;;;18.00;12.75;;;25.10;99.90;;;;;;5012005;28;20041;-75
2022/05/18 10:08:00;;;;;;;21.45;14.15;;;25.10;99.90;;;;;;5012568;28;20496;-75
2022/05/18 10:10:30;;;;;;;20.50;13.88;;;25.40;99.90;;;;;;5011710;28;20042;-75
2022/05/18 10:12:58;;;;;;;20.27;14.70;;;25.20;99.90;;;;;;4996358;28;20404;-75
2022/05/18 10:15:24;;;;;;;20.80;13.80;;;25.00;99.90;;;;;;4996033;28;20069;-75
2022/05/18 10:17:53;;;;;;;21.00;13.52;;;24.80;99.90;;;;;;5013678;28;20484;-75
2022/05/18 10:20:34;;;;;;;16.35;12.50;;;24.60;99.90;;;;;;5013272;28;20037;-75
2022/05/18 10:23:01;;;;;;;17.13;11.43;;;25.40;99.90;;;;;;5013573;28;20048;-75
2022/05/18 10:25:35;;;;;;;17.90;11.43;;;25.40;99.90;;;;;;5012292;28;20041;-75
2022/05/18 10:28:18;;;;;;;15.68;10.73;;;25.30;99.90;;;;;;5012427;28;20049;-75
2022/05/18 10:31:05;;;;;;;15.02;9.85;;;25.00;99.90;;;;;;5011538;28;20504;-75
2022/05/18 10:33:40;;;;;;;16.25;9.50;;;25.30;99.90;;;;;;5013437;28;20041;-75
2022/05/18 10:36:24;;;;;;;14.45;9.93;;;25.70;99.90;;;;;;5012148;28;20129;-75
2022/05/18 10:38:53;;;;;;;15.13;10.85;;;25.70;99.90;;;;;;5012418;28;20044;-75
2022/05/18 10:41:26;;;;;;;16.88;11.60;;;25.60;99.90;;;;;;5012040;28;20057;-75
2022/05/18 10:43:54;;;;;;;;;;;25.70;99.90;;;;;;5012323;28;20042;-74
2022/05/18 10:46:38;;;;;;;15.88;11.18;;;26.00;99.90;;;;;;5012603;28;20374;-75
2022/05/18 10:49:28;;;;;;;15.50;10.30;;;26.10;99.90;;;;;;5011341;28;20400;-75
2022/05/18 10:51:54;;;;;;;17.20;11.38;;;25.90;99.90;;;;;;4995626;28;20406;-75
2022/05/18 10:54:22;;;;;;;16.15;11.75;;;26.10;99.90;;;;;;5011933;28;20123;-75
2022/05/18 10:56:49;;;;;;;18.58;10.90;;;25.90;99.90;;;;;;5013056;28;20069;-75
2022/05/18 10:59:23;;;;;;;14.93;11.35;;;25.90;99.90;;;;;;5010793;28;20029;-75
2022/05/18 11:01:57;;;;;;;17.80;11.25;;;25.90;99.90;;;;;;5013144;28;20038;-75
2022/05/18 11:05:04;;;;;;;21.52;12.02;;;26.00;99.90;;;;;;5011769;28;20092;-75
2022/05/18 11:07:31;;;;;;;14.70;10.25;;;26.00;99.90;;;;;;4955461;28;20038;-75
2022/05/18 11:09:57;;;;;;;9.82;7.60;;;26.10;99.90;;;;;;5005553;28;20500;-75
2022/05/18 11:12:29;;;;;;;18.15;11.88;;;28.30;99.90;;;;;;5013034;28;20121;-75
2022/05/18 11:15:00;;;;;;;11.93;8.57;;;25.90;99.90;;;;;;5011648;28;20416;-75
2022/05/18 11:17:46;;;;;;;12.60;9.57;;;25.50;99.90;;;;;;4995270;28;20333;-75
2022/05/18 11:20:23;;;;;;;10.82;8.15;;;26.10;99.90;;;;;;4990829;28;20085;-75
2022/05/18 11:23:03;;;;;;;12.82;10.10;;;26.00;99.90;;;;;;5011892;28;20100;-75
2022/05/18 11:25:43;;;;;;;14.15;8.90;;;25.90;99.90;;;;;;5011899;28;20041;-75
2022/05/18 11:28:40;;;;;;;14.93;10.45;;;26.00;99.90;;;;;;5013003;28;20041;-75
2022/05/18 11:31:43;;;;;;;13.60;9.65;;;26.10;99.90;;;;;;4994917;28;20052;-75
2022/05/18 11:34:34;;;;;;;13.60;9.30;;;26.20;99.90;;;;;;5012958;28;20042;-75
2022/05/18 11:37:04;;;;;;;15.43;9.35;;;26.20;99.90;;;;;;5012138;28;20038;-75
2022/05/18 11:39:52;;;;;;;10.52;8.75;;;26.20;99.90;;;;;;5012202;28;20532;-75
2022/05/18 11:42:29;;;;;;;13.23;8.75;;;26.30;99.90;;;;;;5013590;28;20038;-75
2022/05/18 11:44:57;;;;;;;16.42;9.32;;;26.10;99.90;;;;;;5012910;28;20080;-75
2022/05/18 11:47:33;;;;;;;15.35;10.32;;;26.30;99.90;;;;;;5011444;28;20041;-75
2022/05/18 11:50:29;;;;;;;13.82;9.68;;;26.10;99.90;;;;;;5011102;28;20445;-75
2022/05/18 11:53:12;;;;;;;16.10;11.93;;;25.80;99.90;;;;;;5012376;28;20042;-75
2022/05/18 11:55:54;;;;;;;17.45;12.40;;;26.00;99.90;;;;;;5011266;28;20042;-75
2022/05/18 11:58:54;;;;;;;19.08;12.35;;;25.80;99.90;;;;;;5011317;28;20073;-75
2022/05/18 12:01:50;;;;;;;15.95;9.45;;;25.20;99.90;;;;;;5012143;28;20038;-75
2022/05/18 12:04:45;;;;;;;16.52;10.95;;;25.80;99.90;;;;;;5011371;28;20046;-75
2022/05/18 12:07:49;;;;;;;13.63;8.18;;;25.80;99.90;;;;;;5003117;28;20042;-75
2022/05/18 12:10:32;;;;;;;16.92;12.18;;;26.00;99.90;;;;;;4989719;28;20054;-75
2022/05/18 12:13:16;;;;;;;20.02;13.30;;;26.00;99.90;;;;;;5012759;28;20042;-75
2022/05/18 12:16:15;;;;;;;17.40;12.20;;;25.70;99.90;;;;;;5012711;28;20034;-75
2022/05/18 12:18:52;;;;;;;21.88;14.20;;;25.40;99.90;;;;;;5011415;28;20046;-75
2022/05/18 12:21:26;;;;;;;21.45;12.65;;;25.50;99.90;;;;;;5012248;28;20104;-75
2022/05/18 12:23:56;;;;;;;16.17;11.55;;;25.70;99.90;;;;;;5011615;28;20042;-75
2022/05/18 12:26:23;;;;;;;18.55;11.48;;;25.60;99.90;;;;;;5011471;28;20129;-75
2022/05/18 12:28:50;;;;;;;14.35;9.65;;;25.60;99.90;;;;;;5012411;28;20096;-75
2022/05/18 12:31:17;;;;;;;12.50;7.45;;;26.00;99.90;;;;;;4994245;28;20042;-75
2022/05/18 12:33:46;;;;;;;17.23;10.93;;;25.90;99.90;;;;;;5011331;28;20045;-75
2022/05/18 12:36:23;;;;;;;20.10;14.43;;;25.70;99.90;;;;;;5012516;28;20042;-75
2022/05/18 12:39:05;;;;;;;19.10;13.38;;;25.40;99.90;;;;;;5012778;28;20073;-75
2022/05/18 12:41:32;;;;;;;19.70;15.77;;;25.60;99.90;;;;;;5011462;28;20041;-74
2022/05/18 12:44:11;;;;;;;23.40;13.45;;;25.30;99.90;;;;;;5011437;28;20050;-75
2022/05/18 12:46:42;;;;;;;22.55;14.32;;;25.90;99.90;;;;;;5011132;28;20049;-75
2022/05/18 12:49:15;;;;;;;24.80;15.68;;;25.40;99.90;;;;;;5011845;28;20100;-74
2022/05/18 12:52:05;;;;;;;25.35;16.15;;;26.00;99.90;;;;;;5010587;28;20048;-75
2022/05/18 12:54:48;;;;;;;23.65;15.95;;;25.50;99.90;;;;;;5010634;28;20046;-74
2022/05/18 12:57:16;;;;;;;23.38;16.42;;;25.50;99.90;;;;;;5011717;28;20124;-74
2022/05/18 13:00:02;;;;;;;23.15;16.10;;;25.70;99.90;;;;;;5009925;28;20100;-75
2022/05/18 13:02:52;;;;;;;28.45;18.35;;;25.80;99.90;;;;;;5012469;28;20040;-74
2022/05/18 13:05:27;;;;;;;23.88;17.50;;;25.60;99.90;;;;;;5009158;28;20085;-74
2022/05/18 13:07:58;;;;;;;24.77;17.77;;;25.80;99.90;;;;;;5013104;28;20045;-74
2022/05/18 13:10:28;;;;;;;24.35;15.73;;;25.50;99.90;;;;;;5013862;28;20108;-74
2022/05/18 13:12:59;;;;;;;29.50;16.88;;;26.00;99.90;;;;;;5015355;28;20504;-75
2022/05/18 13:15:55;;;;;;;22.08;15.57;;;25.60;99.90;;;;;;5015025;28;20045;-74
2022/05/18 13:18:33;;;;;;;23.73;16.77;;;25.70;99.90;;;;;;5014405;28;20435;-74